createdAt,value
2023-03-24T07:20:22.714Z,98483.16
2023-03-24T07:25:27.164Z,98477.47
2023-03-24T07:30:40.634Z,98483.22
2023-03-24T07:35:44.067Z,98483.81
2023-03-24T07:40:46.362Z,98471.56
2023-03-24T07:45:48.355Z,98470.00
2023-03-24T07:50:52.593Z,98485.50
2023-03-24T07:56:15.979Z,98480.91
2023-03-24T08:01:27.087Z,98476.47
2023-03-24T08:06:32.466Z,98476.78
2023-03-24T08:11:34.660Z,98478.81
2023-03-24T08:16:38.905Z,98490.22
2023-03-24T08:21:41.067Z,98496.09
2023-03-24T08:26:43.102Z,98483.84
2023-03-24T08:31:44.745Z,98482.09
2023-03-24T08:36:46.370Z,98489.53
2023-03-24T08:41:50.192Z,98491.72
2023-03-24T08:46:51.875Z,98494.88
2023-03-24T08:51:53.513Z,98479.13
2023-03-24T08:56:55.449Z,98490.28
2023-03-24T09:01:57.179Z,98470.44
2023-03-24T09:07:02.843Z,98475.56
2023-03-24T09:12:04.821Z,98481.50
2023-03-24T09:17:06.993Z,98481.13
2023-03-24T09:22:08.676Z,98471.22
2023-03-24T09:27:10.883Z,98481.50
2023-03-24T09:32:12.556Z,98488.34
2023-03-24T09:37:14.264Z,98490.06
2023-03-24T09:42:24.103Z,98496.41
2023-03-24T09:47:30.971Z,98480.25
2023-03-24T09:52:39.981Z,98497.59
2023-03-24T09:57:45.634Z,98486.38
2023-03-24T10:02:49.702Z,98499.53
2023-03-24T10:08:12.736Z,98480.63
2023-03-24T10:13:29.852Z,98490.69
2023-03-24T10:18:46.121Z,98492.63
2023-03-24T10:24:18.825Z,98492.09
2023-03-24T10:29:28.862Z,98468.91
2023-03-24T10:34:33.836Z,98477.75
2023-03-24T10:39:43.948Z,98485.94
2023-03-24T10:44:48.391Z,98481.19
2023-03-24T10:50:12.324Z,98475.78
2023-03-24T10:55:19.525Z,98454.09
2023-03-24T11:00:26.834Z,98481.91
2023-03-24T11:05:33.344Z,98489.19
2023-03-24T11:10:34.991Z,98516.00
2023-03-24T11:15:37.456Z,98524.59
2023-03-24T11:21:09.439Z,98534.97
2023-03-24T11:26:19.089Z,98529.53
2023-03-24T11:31:27.902Z,98529.53
2023-03-24T11:36:36.025Z,98509.91
2023-03-24T11:41:52.676Z,98518.97
2023-03-24T11:47:10.214Z,98511.81
2023-03-24T11:52:24.189Z,98513.22
2023-03-24T11:57:48.829Z,98509.53
2023-03-24T12:02:59.525Z,98508.41
2023-03-24T12:08:26.462Z,98483.63
2023-03-24T12:13:39.380Z,98483.44
2023-03-24T12:18:57.006Z,98470.97
2023-03-24T12:24:17.399Z,98472.91
2023-03-24T12:30:14.407Z,98473.91
2023-03-24T12:35:38.219Z,98490.72
2023-03-24T12:40:53.300Z,98475.44
2023-03-24T12:46:06.089Z,98478.47
2023-03-24T12:51:29.198Z,98478.38
2023-03-24T12:56:48.167Z,98463.88
2023-03-24T13:02:22.303Z,98463.91
2023-03-24T13:07:28.520Z,98457.84
2023-03-24T13:12:40.823Z,98451.84
2023-03-24T13:17:59.821Z,98459.69
2023-03-24T13:23:42.588Z,98436.97
2023-03-24T13:29:10.888Z,98457.97
2023-03-24T13:34:31.754Z,98442.22
2023-03-24T13:39:36.152Z,98429.88
2023-03-24T13:44:41.283Z,98429.81
2023-03-24T13:49:53.748Z,98436.63
2023-03-24T13:55:00.057Z,98418.59
2023-03-24T14:00:11.896Z,98450.06
2023-03-24T14:05:22.806Z,98585.75
2023-03-24T14:10:24.396Z,98609.22
2023-03-24T14:15:55.839Z,98608.63
2023-03-24T14:20:57.552Z,98604.47
2023-03-24T14:25:59.411Z,98633.66
2023-03-24T14:31:10.198Z,98604.91
2023-03-24T14:36:20.822Z,98616.91
2023-03-24T14:41:38.994Z,98623.25
2023-03-24T14:46:48.075Z,98632.47
2023-03-24T14:52:09.263Z,98622.28
2023-03-24T14:57:20.349Z,98617.50
2023-03-24T15:02:41.382Z,98633.06
2023-03-24T15:07:44.428Z,98624.78
2023-03-24T15:12:47.701Z,98626.44
2023-03-24T15:17:51.581Z,98602.81
2023-03-24T15:22:55.393Z,98615.41
2023-03-24T15:27:57.902Z,98608.56
2023-03-24T15:32:59.704Z,98600.72
2023-03-24T15:38:01.872Z,98598.44
2023-03-24T15:43:17.997Z,98568.84
2023-03-24T15:48:24.700Z,98547.09
2023-03-24T15:53:29.469Z,98559.31
2023-03-24T15:58:34.511Z,98537.75
2023-03-24T16:03:36.204Z,98534.69
2023-03-24T16:08:41.153Z,98537.56
2023-03-24T16:13:45.005Z,98552.06
2023-03-24T16:18:48.763Z,98527.59
2023-03-24T16:23:52.386Z,98543.38
2023-03-24T16:28:56.987Z,98544.38
2023-03-24T16:33:59.402Z,98544.19
2023-03-24T16:39:05.196Z,98558.66
2023-03-24T16:44:06.873Z,98546.63
2023-03-24T16:49:16.513Z,98561.53
2023-03-24T16:54:19.970Z,98553.28
2023-03-24T16:59:21.596Z,98549.13
2023-03-24T17:04:25.916Z,98560.53
2023-03-24T17:09:28.647Z,98568.84
2023-03-24T17:14:31.162Z,98562.22
2023-03-24T17:19:33.129Z,98584.38
2023-03-24T17:24:36.706Z,98579.19
2023-03-24T17:29:38.383Z,98581.06
2023-03-24T17:34:42.369Z,98579.22
2023-03-24T17:39:44.284Z,98584.19
2023-03-24T17:44:45.969Z,98586.03
2023-03-24T17:49:47.640Z,98588.94
2023-03-24T17:54:49.245Z,98620.00
2023-03-24T17:59:52.889Z,98603.63
2023-03-24T18:04:55.190Z,98615.84
2023-03-24T18:09:56.809Z,98615.03
2023-03-24T18:14:58.417Z,98623.94
2023-03-24T18:20:10.221Z,98615.84
2023-03-24T18:25:13.591Z,98626.84
2023-03-24T18:30:16.947Z,98639.88
2023-03-24T18:35:18.709Z,98637.78
2023-03-24T18:40:20.332Z,98653.75
2023-03-24T18:45:21.957Z,98656.63
2023-03-24T18:50:23.552Z,98651.88
2023-03-24T18:55:26.712Z,98642.97
2023-03-24T19:00:28.660Z,98648.94
2023-03-24T19:05:33.405Z,98649.38
2023-03-24T19:10:36.833Z,98673.78
2023-03-24T19:15:39.349Z,98668.78
2023-03-24T19:20:42.090Z,98679.78
2023-03-24T19:25:43.854Z,98672.28
2023-03-24T19:30:45.599Z,98671.41
2023-03-24T19:35:48.695Z,98687.16
2023-03-24T19:40:52.775Z,98687.97
2023-03-24T19:45:55.983Z,98682.97
2023-03-24T19:50:57.664Z,98679.22
2023-03-24T19:55:59.904Z,98682.31
2023-03-24T20:01:01.606Z,98685.53
2023-03-24T20:06:05.112Z,98690.75
2023-03-24T20:11:09.386Z,98678.91
2023-03-24T20:16:11.145Z,98685.25
2023-03-24T20:21:20.023Z,98690.22
2023-03-24T20:26:21.978Z,98690.44
2023-03-24T20:31:24.881Z,98688.09
2023-03-24T20:36:26.512Z,98694.31
2023-03-24T20:41:28.219Z,98692.78
2023-03-24T20:46:29.903Z,98687.25
2023-03-24T20:51:31.529Z,98690.50
2023-03-24T20:56:34.614Z,98679.34
2023-03-24T21:01:36.781Z,98688.41
2023-03-24T21:06:38.438Z,98693.94
2023-03-24T21:11:40.071Z,98703.03
2023-03-24T21:16:41.709Z,98692.72
2023-03-24T21:21:44.694Z,98690.41
2023-03-24T21:26:49.418Z,98693.72
2023-03-24T21:31:51.539Z,98690.41
2023-03-24T21:36:55.605Z,98676.97
2023-03-24T21:41:57.450Z,98680.91
2023-03-24T21:47:00.628Z,98681.75
2023-03-24T21:52:04.440Z,98691.31
2023-03-24T21:57:06.125Z,98697.00
2023-03-24T22:02:14.483Z,98712.56
2023-03-24T22:07:18.959Z,98721.03
2023-03-24T22:12:20.806Z,98721.91
2023-03-24T22:17:22.453Z,98718.19
2023-03-24T22:22:24.207Z,98715.06
2023-03-24T22:27:25.873Z,98706.41
2023-03-24T22:32:27.888Z,98708.09
2023-03-24T22:37:30.502Z,98707.06
2023-03-24T22:42:32.137Z,98697.16
2023-03-24T22:47:34.059Z,98701.53
2023-03-24T22:52:35.760Z,98701.72
2023-03-24T22:57:37.382Z,98694.47
2023-03-24T23:02:39.148Z,98683.53
2023-03-24T23:07:42.150Z,98698.84
2023-03-24T23:12:44.066Z,98689.13
2023-03-24T23:17:46.231Z,98697.19
2023-03-24T23:22:48.093Z,98703.56
2023-03-24T23:27:49.972Z,98697.78
2023-03-24T23:32:51.838Z,98699.03
2023-03-24T23:37:53.577Z,98703.38
2023-03-24T23:42:55.173Z,98706.44
2023-03-24T23:47:56.971Z,98705.81
2023-03-24T23:52:59.290Z,98706.81
2023-03-24T23:58:01.101Z,98713.44
